Time;durP1;ratioP1;P1;durP2;ratioP2;P2;SDS_P1;SDS_P2;PMS_P1;PMS_P2;Temp;Humidity;BMP_temperature;BMP_pressure;BME280_temperature;BME280_humidity;BME280_pressure;Samples;Min_cycle;Max_cycle;Signal;HPM_P1;HPM_P2
2021/10/01 00:00:13;;;;;;;3.38;2.70;;;;;;;15.92;58.97;100719.72;5066094;28;20025;-47
2021/10/01 00:02:39;;;;;;;4.07;2.80;;;;;;;15.92;58.67;100692.88;5054118;28;20028;-47
2021/10/01 00:05:05;;;;;;;5.38;3.00;;;;;;;16.30;58.38;100713.50;5065000;28;20025;-47
2021/10/01 00:07:30;;;;;;;3.72;2.80;;;;;;;16.75;56.81;100710.66;5060070;28;20031;-49
2021/10/01 00:09:55;;;;;;;5.93;2.80;;;;;;;16.33;58.28;100712.22;5058112;28;20118;-47
2021/10/01 00:12:21;;;;;;;3.67;2.83;;;;;;;16.40;57.95;100710.31;5067260;28;20037;-50
2021/10/01 00:14:48;;;;;;;4.72;3.00;;;;;;;16.21;58.89;100710.22;5054118;28;20140;-48
2021/10/01 00:17:14;;;;;;;5.68;2.95;;;;;;;16.47;57.63;100705.72;5063741;28;20033;-49
2021/10/01 00:19:40;;;;;;;4.22;2.80;;;;;;;16.58;56.85;100705.00;5061427;28;20064;-48
2021/10/01 00:22:05;;;;;;;6.25;3.05;;;;;;;16.80;56.16;100705.41;5056832;28;20048;-50
2021/10/01 00:24:31;;;;;;;3.35;2.95;;;;;;;17.01;55.28;100708.78;5066648;28;20032;-51
2021/10/01 00:26:56;;;;;;;4.45;3.28;;;;;;;16.65;55.88;100701.44;5055471;28;20020;-51
2021/10/01 00:29:22;;;;;;;4.50;3.17;;;;;;;16.08;57.49;100698.75;5062591;28;20069;-51
2021/10/01 00:31:47;;;;;;;4.40;3.40;;;;;;;16.35;57.86;100700.22;5062087;28;20353;-48
2021/10/01 00:34:13;;;;;;;5.18;3.30;;;;;;;16.51;56.88;100701.56;5055618;28;20474;-50
2021/10/01 00:36:38;;;;;;;6.63;3.30;;;;;;;16.33;57.02;100696.91;5067225;28;20026;-51
2021/10/01 00:39:04;;;;;;;6.03;3.35;;;;;;;16.20;57.39;100689.81;5056062;28;20033;-52
2021/10/01 00:41:30;;;;;;;5.30;3.40;;;;;;;15.94;58.25;100693.47;5061006;28;20028;-50
2021/10/01 00:43:56;;;;;;;5.68;3.47;;;;;;;15.93;58.60;100694.50;5062969;28;20043;-51
2021/10/01 00:46:22;;;;;;;4.72;3.55;;;;;;;16.30;57.48;100693.88;5053691;28;20024;-51
2021/10/01 00:48:47;;;;;;;4.63;3.45;;;;;;;16.47;57.00;100691.44;5066894;28;20107;-50
2021/10/01 00:51:13;;;;;;;7.38;3.85;;;;;;;16.37;56.84;100689.25;5057098;28;20028;-49
2021/10/01 00:53:38;;;;;;;7.45;3.78;;;;;;;16.59;57.14;100687.81;5058081;28;20400;-51
2021/10/01 00:56:04;;;;;;;6.55;3.60;;;;;;;16.72;56.08;100683.41;5064349;28;20392;-51
2021/10/01 00:58:30;;;;;;;5.43;3.85;;;;;;;16.88;55.30;100682.84;5052109;28;20119;-49
2021/10/01 01:03:24;;;;;;;6.90;4.57;;;;;;;16.81;55.71;100687.41;5058771;28;20056;-51
2021/10/01 01:06:40;;;;;;;5.55;4.50;;;;;;;17.03;55.51;100693.22;5058100;28;20075;-51
2021/10/01 01:09:38;;;;;;;7.13;4.70;;;;;;;17.08;55.28;100690.72;5024309;28;20123;-48
2021/10/01 01:12:21;;;;;;;6.78;4.97;;;;;;;16.73;56.03;100680.47;5056086;28;20075;-49
2021/10/01 01:14:50;;;;;;;10.05;5.05;;;;;;;16.66;56.23;100679.72;5066564;28;20548;-47
2021/10/01 01:17:46;;;;;;;8.45;4.65;;;;;;;16.89;55.75;100683.69;5057312;28;20052;-50
2021/10/01 01:20:18;;;;;;;7.65;4.82;;;;;;;16.87;55.40;100675.00;5052719;28;20586;-49
2021/10/01 01:23:20;;;;;;;7.35;4.70;;;;;;;16.94;55.64;100675.75;5066538;28;20032;-49
2021/10/01 01:25:58;;;;;;;;;;;;;;;17.06;54.73;100679.34;5061831;28;20032;-48
2021/10/01 01:28:32;;;;;;;8.52;4.65;;;;;;;16.94;55.59;100684.63;5053442;28;19908;-51
2021/10/01 01:31:01;;;;;;;7.28;4.78;;;;;;;16.80;55.05;100672.34;5063670;28;20477;-51
2021/10/01 01:33:27;;;;;;;7.20;5.43;;;;;;;16.64;56.15;100667.53;5058646;28;20488;-51
2021/10/01 01:35:55;;;;;;;8.43;4.97;;;;;;;16.61;55.56;100672.31;5036351;28;20038;-49
2021/10/01 01:38:31;;;;;;;7.05;4.80;;;;;;;16.60;56.10;100667.16;5060715;28;20041;-49
2021/10/01 01:40:57;;;;;;;8.98;5.00;;;;;;;16.41;57.06;100671.66;5037191;28;20481;-48
2021/10/01 01:43:23;;;;;;;8.82;4.63;;;;;;;16.60;56.32;100664.47;5043398;28;20114;-49
2021/10/01 01:45:49;;;;;;;7.20;5.13;;;;;;;16.87;55.48;100664.25;5060335;28;20040;-47
2021/10/01 01:48:14;;;;;;;7.85;4.93;;;;;;;16.48;56.22;100661.69;5053155;28;20021;-48
2021/10/01 01:50:40;;;;;;;8.30;5.32;;;;;;;16.21;56.88;100661.06;5048264;28;20150;-49
2021/10/01 01:53:05;;;;;;;8.98;5.53;;;;;;;16.10;57.68;100659.91;5053808;28;20024;-52
2021/10/01 01:55:31;;;;;;;8.00;5.45;;;;;;;16.50;55.93;100659.59;5060058;28;20453;-48
2021/10/01 01:57:57;;;;;;;10.00;5.65;;;;;;;16.23;57.36;100657.13;5038697;28;20040;-48
2021/10/01 02:00:23;;;;;;;9.75;5.30;;;;;;;16.18;57.48;100656.13;5065188;28;20048;-50
2021/10/01 02:02:49;;;;;;;7.20;5.30;;;;;;;16.48;56.78;100656.31;5051712;28;20405;-51
2021/10/01 02:05:14;;;;;;;7.50;5.30;;;;;;;16.44;56.46;100657.78;5060877;28;20033;-48
2021/10/01 02:07:40;;;;;;;8.82;5.20;;;;;;;16.02;58.07;100663.69;5060212;28;20024;-48
2021/10/01 02:10:06;;;;;;;10.25;5.60;;;;;;;16.39;56.96;100661.16;5037418;28;20369;-50
2021/10/01 02:12:31;;;;;;;9.82;5.50;;;;;;;16.73;56.07;100666.22;5048491;28;20115;-49
2021/10/01 02:14:57;;;;;;;8.88;6.05;;;;;;;16.41;56.57;100661.75;5054123;28;20047;-51
2021/10/01 02:17:23;;;;;;;10.40;5.30;;;;;;;16.53;56.55;100666.41;5059767;28;20449;-51
2021/10/01 02:19:48;;;;;;;9.75;5.90;;;;;;;16.54;56.35;100665.34;5061153;28;20099;-51
2021/10/01 02:22:16;;;;;;;10.45;6.03;;;;;;;16.51;56.42;100665.81;5035954;28;20032;-51
2021/10/01 02:24:42;;;;;;;13.23;6.50;;;;;;;16.07;57.60;100659.53;5066066;28;20374;-50
2021/10/01 02:27:20;;;;;;;8.00;6.05;;;;;;;16.17;57.63;100667.94;5037830;28;20016;-51
2021/10/01 02:29:54;;;;;;;10.57;6.45;;;;;;;16.63;55.97;100672.09;5056716;28;20045;-50
2021/10/01 02:32:35;;;;;;;11.88;6.20;;;;;;;16.74;56.41;100678.63;5063985;28;20033;-48
2021/10/01 02:35:00;;;;;;;12.15;6.70;;;;;;;16.66;56.42;100671.66;5038554;28;20024;-50
2021/10/01 02:37:26;;;;;;;11.52;6.13;;;;;;;16.60;55.86;100677.91;5060356;28;20029;-49
2021/10/01 02:39:52;;;;;;;11.13;6.65;;;;;;;16.13;57.22;100672.09;5061290;28;20029;-49
2021/10/01 02:42:18;;;;;;;11.93;7.03;;;;;;;16.20;56.87;100672.84;5053189;28;20082;-50
2021/10/01 02:44:44;;;;;;;11.52;6.90;;;;;;;16.02;57.83;100674.41;5065569;28;20024;-47
2021/10/01 02:47:09;;;;;;;9.93;7.15;;;;;;;16.16;57.50;100660.91;5055336;28;20025;-50
2021/10/01 02:49:35;;;;;;;11.57;6.20;;;;;;;16.08;57.23;100662.00;5037568;28;20030;-48
2021/10/01 02:52:42;;;;;;;10.43;6.22;;;;;;;16.39;56.83;100671.06;5047636;28;20112;-47
2021/10/01 02:55:19;;;;;;;10.68;6.15;;;;;;;16.13;56.87;100670.22;5044997;28;20376;-48
2021/10/01 02:58:07;;;;;;;8.02;5.93;;;;;;;16.18;56.85;100659.66;5061110;28;20112;-48
2021/10/01 03:00:33;;;;;;;8.70;5.88;;;;;;;16.36;56.50;100674.19;5068811;28;20180;-50
2021/10/01 03:02:58;;;;;;;9.25;5.85;;;;;;;16.48;56.07;100669.75;5039439;28;20055;-47
2021/10/01 03:05:24;;;;;;;8.23;6.18;;;;;;;16.19;56.79;100680.09;5046266;28;20056;-47
2021/10/01 03:07:50;;;;;;;10.90;6.03;;;;;;;15.80;57.90;100673.09;5063188;28;20024;-48
2021/10/01 03:10:15;;;;;;;8.55;6.25;;;;;;;15.85;58.24;100680.53;5055605;28;20052;-48
2021/10/01 03:12:41;;;;;;;9.57;6.53;;;;;;;15.96;57.26;100669.09;5069052;28;20404;-50
2021/10/01 03:15:07;;;;;;;9.85;6.00;;;;;;;15.95;57.75;100678.19;5040115;28;20051;-48
2021/10/01 03:17:33;;;;;;;9.65;6.80;;;;;;;15.48;59.02;100673.06;5060967;28;20041;-50
2021/10/01 03:19:59;;;;;;;11.40;6.57;;;;;;;15.92;58.29;100673.28;5064138;28;20466;-50
2021/10/01 03:22:31;;;;;;;11.82;6.85;;;;;;;15.44;58.71;100674.53;5055406;28;20056;-49
2021/10/01 03:24:57;;;;;;;12.52;6.90;;;;;;;16.04;57.61;100671.53;5065994;28;20028;-49
2021/10/01 03:27:24;;;;;;;10.73;6.97;;;;;;;15.89;57.51;100662.94;5042610;28;20099;-49
2021/10/01 03:29:50;;;;;;;10.70;7.18;;;;;;;15.35;59.36;100668.56;5041579;28;20427;-50
2021/10/01 03:32:15;;;;;;;8.85;6.95;;;;;;;15.79;57.99;100671.47;5065057;28;20044;-48
2021/10/01 03:34:40;;;;;;;12.40;6.93;;;;;;;15.72;57.79;100666.09;5036757;28;20029;-50
2021/10/01 03:37:06;;;;;;;11.45;7.28;;;;;;;15.48;58.40;100666.84;5064845;28;20028;-48
2021/10/01 03:39:31;;;;;;;10.80;6.85;;;;;;;15.89;57.68;100669.13;5059836;28;20040;-48
2021/10/01 03:41:57;;;;;;;12.32;7.05;;;;;;;15.79;57.37;100672.28;5056692;28;20423;-47
2021/10/01 03:44:22;;;;;;;11.75;7.40;;;;;;;15.72;58.40;100678.72;5068185;28;20366;-49
2021/10/01 03:46:48;;;;;;;14.00;7.30;;;;;;;15.80;57.51;100678.47;5038436;28;20046;-50
2021/10/01 03:49:13;;;;;;;13.85;7.90;;;;;;;15.77;56.90;100665.50;5064049;28;20013;-50
2021/10/01 03:51:39;;;;;;;10.63;7.22;;;;;;;15.53;57.89;100681.25;5060200;28;20148;-50
2021/10/01 03:54:05;;;;;;;13.90;7.55;;;;;;;15.69;56.52;100684.50;5056915;28;20025;-48
2021/10/01 03:56:30;;;;;;;11.90;7.75;;;;;;;15.47;57.21;100686.66;5067502;28;20021;-48
2021/10/01 03:58:56;;;;;;;11.32;7.45;;;;;;;16.09;54.96;100687.81;5055538;28;20078;-48
2021/10/01 04:01:21;;;;;;;11.82;6.93;;;;;;;15.93;55.71;100685.63;5062730;28;20073;-49
2021/10/01 04:03:47;;;;;;;12.15;7.50;;;;;;;16.23;53.99;100680.47;5062066;28;20066;-51
2021/10/01 04:06:12;;;;;;;11.85;7.03;;;;;;;16.00;54.62;100679.19;5055693;28;20040;-48
2021/10/01 04:08:38;;;;;;;13.10;7.32;;;;;;;15.99;55.05;100677.56;5067209;28;20033;-48
2021/10/01 04:11:03;;;;;;;14.43;7.80;;;;;;;16.03;54.25;100681.44;5056237;28;20086;-48
2021/10/01 04:13:29;;;;;;;9.88;7.05;;;;;;;15.99;53.64;100676.72;5060433;28;20035;-49
2021/10/01 04:15:54;;;;;;;13.82;7.45;;;;;;;15.66;55.19;100682.25;5063272;28;20049;-51
2021/10/01 04:18:20;;;;;;;15.35;7.30;;;;;;;15.75;54.60;100684.50;5054422;28;20025;-49
2021/10/01 04:20:46;;;;;;;54.28;32.35;;;;;;;15.53;55.19;100680.44;5066665;28;20021;-50
2021/10/01 04:23:14;;;;;;;11.35;7.25;;;;;;;15.58;55.25;100689.50;5056903;28;20024;-48
2021/10/01 04:25:40;;;;;;;13.82;7.40;;;;;;;15.95;54.13;100686.25;5059773;28;20049;-51
2021/10/01 04:28:08;;;;;;;13.68;7.07;;;;;;;15.93;54.56;100689.13;5064453;28;20491;-49
2021/10/01 04:30:41;;;;;;;15.10;7.30;;;;;;;16.09;53.71;100700.41;5053808;28;20117;-47
2021/10/01 04:33:23;;;;;;;10.40;6.80;;;;;;;15.72;55.49;100701.00;5063637;28;20362;-51
2021/10/01 04:35:49;;;;;;;12.75;6.65;;;;;;;15.70;54.62;100702.25;5061684;28;20111;-50
2021/10/01 04:38:16;;;;;;;11.60;6.95;;;;;;;15.54;55.79;100704.38;5054778;28;20089;-48
2021/10/01 04:40:41;;;;;;;14.90;7.53;;;;;;;15.35;56.99;100705.28;5066490;28;20044;-50
2021/10/01 04:43:06;;;;;;;15.05;7.68;;;;;;;15.89;55.08;100712.09;5055909;28;20434;-51
2021/10/01 04:45:32;;;;;;;12.30;7.00;;;;;;;16.17;54.26;100709.03;5059867;28;20029;-47
2021/10/01 04:47:57;;;;;;;15.15;7.20;;;;;;;16.19;54.94;100711.50;5062943;28;20108;-49
2021/10/01 04:50:23;;;;;;;13.10;7.70;;;;;;;16.15;55.42;100713.78;5053092;28;20048;-49
2021/10/01 04:52:48;;;;;;;12.52;7.28;;;;;;;15.97;55.58;100722.59;5065950;28;20428;-49
2021/10/01 04:55:14;;;;;;;16.08;8.02;;;;;;;15.99;56.01;100725.03;5055524;28;20020;-48
2021/10/01 04:57:39;;;;;;;18.48;7.75;;;;;;;15.96;55.95;100710.19;5056427;28;20036;-49
2021/10/01 05:00:05;;;;;;;15.65;7.60;;;;;;;16.10;55.13;100716.28;5037045;28;20047;-52
2021/10/01 05:02:31;;;;;;;13.15;7.97;;;;;;;16.35;54.90;100727.06;5065574;28;20130;-48
2021/10/01 05:04:57;;;;;;;14.80;7.90;;;;;;;16.32;54.64;100730.22;5049708;28;20406;-47
2021/10/01 05:07:23;;;;;;;12.88;7.55;;;;;;;16.40;54.36;100729.94;5057035;28;20048;-48
2021/10/01 05:09:51;;;;;;;13.38;6.90;;;;;;;16.39;53.81;100731.00;5056560;28;20032;-48
2021/10/01 05:12:16;;;;;;;18.08;7.97;;;;;;;16.34;54.18;100740.75;5064435;28;20101;-48
2021/10/01 05:14:42;;;;;;;13.60;7.38;;;;;;;16.22;54.37;100737.91;5051374;28;20064;-48
2021/10/01 05:17:07;;;;;;;13.52;7.15;;;;;;;16.21;54.19;100742.47;5062286;28;20029;-49
2021/10/01 05:19:32;;;;;;;13.38;6.95;;;;;;;16.21;54.36;100747.00;5057893;28;20086;-48
2021/10/01 05:21:58;;;;;;;14.43;7.05;;;;;;;16.38;53.73;100737.38;5055736;28;20025;-50
2021/10/01 05:24:23;;;;;;;18.05;6.88;;;;;;;16.34;53.50;100741.56;5065041;28;20414;-47
2021/10/01 05:26:49;;;;;;;12.88;7.00;;;;;;;15.96;54.46;100746.97;5052250;28;20097;-48
2021/10/01 05:29:14;;;;;;;12.80;7.00;;;;;;;15.85;54.64;100747.63;5061154;28;20036;-49
2021/10/01 05:31:40;;;;;;;12.13;6.47;;;;;;;16.40;53.79;100739.88;5059019;28;20423;-50
2021/10/01 05:34:05;;;;;;;12.85;6.60;;;;;;;16.50;53.72;100734.00;5054362;28;20068;-49
2021/10/01 05:36:32;;;;;;;12.35;6.82;;;;;;;16.55;52.96;100744.94;5065318;28;20032;-49
2021/10/01 05:38:58;;;;;;;13.60;7.20;;;;;;;16.11;54.40;100757.41;5053223;28;20020;-48
2021/10/01 05:41:23;;;;;;;12.13;7.00;;;;;;;16.02;53.67;100752.28;5060253;28;20330;-48
2021/10/01 05:43:49;;;;;;;13.93;7.25;;;;;;;16.06;54.66;100752.66;5060042;28;20039;-52
2021/10/01 05:46:16;;;;;;;12.98;7.00;;;;;;;16.46;52.97;100751.59;5052884;28;20122;-48
2021/10/01 05:48:45;;;;;;;12.45;7.25;;;;;;;16.36;53.23;100757.47;5064551;28;20024;-48
2021/10/01 05:51:12;;;;;;;14.05;6.70;;;;;;;15.91;55.24;100762.88;5054877;28;20031;-50
2021/10/01 05:56:11;;;;;;;9.85;6.82;;;;;;;16.73;54.51;100758.41;5040086;28;20032;-50
2021/10/01 05:58:37;;;;;;;10.18;6.65;;;;;;;16.88;52.28;100762.66;5057172;28;20028;-49
2021/10/01 06:01:02;;;;;;;10.18;6.95;;;;;;;17.33;51.92;100757.88;5054099;28;20028;-48
2021/10/01 06:03:28;;;;;;;11.38;6.40;;;;;;;17.13;51.74;100759.94;5057971;28;20032;-48
2021/10/01 06:05:54;;;;;;;9.50;7.20;;;;;;;17.26;51.47;100759.81;5056440;28;20021;-50
2021/10/01 06:08:19;;;;;;;16.92;7.10;;;;;;;17.39;51.04;100766.94;5035910;28;20036;-47
2021/10/01 06:10:45;;;;;;;14.10;7.50;;;;;;;17.68;50.68;100769.91;5063496;28;20025;-48
2021/10/01 06:13:10;;;;;;;12.52;7.05;;;;;;;17.57;50.00;100774.16;5055329;28;20040;-48
2021/10/01 06:15:36;;;;;;;13.93;7.00;;;;;;;17.53;50.14;100775.66;5056505;28;20072;-48
2021/10/01 06:18:01;;;;;;;11.73;7.03;;;;;;;17.53;49.76;100779.16;5059976;28;20036;-46
2021/10/01 06:20:27;;;;;;;11.73;7.38;;;;;;;17.58;49.88;100778.53;5050316;28;20044;-47
2021/10/01 06:22:52;;;;;;;11.38;6.75;;;;;;;18.04;48.76;100779.03;5062719;28;20487;-47
2021/10/01 06:25:18;;;;;;;11.75;6.10;;;;;;;18.21;47.48;100787.28;5054514;28;20028;-48
2021/10/01 06:27:43;;;;;;;12.88;6.20;;;;;;;17.75;48.67;100776.84;5058454;28;20048;-47
2021/10/01 06:30:09;;;;;;;7.68;5.78;;;;;;;17.71;48.55;100782.94;5063736;28;20028;-49
2021/10/01 06:32:38;;;;;;;10.75;5.00;;;;;;;17.64;47.82;100779.50;5053747;28;20025;-47
2021/10/01 06:35:05;;;;;;;8.45;5.45;;;;;;;17.99;47.14;100790.47;5064499;28;20096;-49
2021/10/01 06:37:30;;;;;;;9.13;4.88;;;;;;;17.66;46.29;100780.09;5059882;28;20368;-47
2021/10/01 06:39:55;;;;;;;8.18;4.45;;;;;;;17.90;45.47;100781.88;5057495;28;20025;-49
2021/10/01 06:42:22;;;;;;;11.35;5.32;;;;;;;17.78;45.83;100778.28;5066799;28;20028;-49
2021/10/01 06:44:50;;;;;;;9.18;5.30;;;;;;;17.93;45.63;100784.13;5038313;28;20181;-49
2021/10/01 06:47:37;;;;;;;7.78;5.28;;;;;;;17.92;45.57;100790.56;5064914;28;20021;-47
2021/10/01 08:19:35;;;;;;;7.93;3.60;;;;;;;20.96;31.62;100776.38;5060155;28;20040;-47
2021/10/01 08:22:01;;;;;;;7.53;3.92;;;;;;;21.67;30.19;100761.13;5063923;28;20036;-47
2021/10/01 08:24:27;;;;;;;6.13;3.30;;;;;;;22.35;29.72;100768.94;5053610;28;20021;-51
2021/10/01 08:26:53;;;;;;;7.13;3.42;;;;;;;20.14;32.38;100766.84;5066052;28;20041;-48
2021/10/01 08:29:19;;;;;;;5.10;3.35;;;;;;;20.35;32.43;100759.94;5058121;28;20542;-50
2021/10/01 08:31:44;;;;;;;7.75;3.53;;;;;;;21.33;31.24;100749.56;5057284;28;20508;-48
2021/10/01 08:34:10;;;;;;;4.65;3.13;;;;;;;22.37;29.78;100755.94;5065050;28;20035;-48
2021/10/01 08:36:35;;;;;;;7.03;3.60;;;;;;;22.63;29.50;100756.94;5053592;28;20025;-48
2021/10/01 08:39:01;;;;;;;8.07;3.42;;;;;;;22.97;28.70;100756.66;5064807;28;20109;-47
2021/10/01 08:41:26;;;;;;;12.05;3.95;;;;;;;22.84;29.12;100754.41;5059028;28;20484;-48
2021/10/01 08:43:52;;;;;;;4.25;3.20;;;;;;;21.38;30.14;100743.41;5057559;28;20041;-49
2021/10/01 08:46:18;;;;;;;5.13;3.63;;;;;;;21.45;30.58;100744.88;5066138;28;20028;-48
2021/10/01 08:48:43;;;;;;;8.20;3.40;;;;;;;22.05;29.76;100745.84;5053053;28;20074;-49
2021/10/01 08:51:10;;;;;;;4.95;3.42;;;;;;;22.79;28.91;100738.91;5061819;28;20031;-46
2021/10/01 08:53:35;;;;;;;6.50;3.45;;;;;;;23.86;27.24;100748.72;5059693;28;20134;-47
2021/10/01 08:56:01;;;;;;;4.97;3.42;;;;;;;23.52;27.62;100742.88;5056072;28;20033;-50
2021/10/01 08:58:28;;;;;;;6.85;3.40;;;;;;;22.88;29.14;100746.56;5055928;28;20032;-48
2021/10/01 09:00:55;;;;;;;6.43;3.53;;;;;;;23.30;28.26;100749.28;5065809;28;20029;-47
2021/10/01 09:03:21;;;;;;;7.88;3.35;;;;;;;22.21;28.43;100748.69;5057853;28;20108;-49
2021/10/01 09:05:46;;;;;;;5.32;3.40;;;;;;;22.54;27.86;100750.41;5057900;28;20021;-50
2021/10/01 09:08:14;;;;;;;6.80;3.60;;;;;;;22.67;28.10;100745.59;5064416;28;20021;-47
2021/10/01 09:10:40;;;;;;;7.55;3.75;;;;;;;22.45;28.88;100741.09;5051361;28;20028;-51
2021/10/01 09:13:07;;;;;;;5.03;3.40;;;;;;;22.18;28.25;100739.19;5063153;28;20123;-48
2021/10/01 09:15:42;;;;;;;5.88;2.97;;;;;;;22.33;27.40;100746.69;5057599;28;20048;-47
2021/10/01 09:18:08;;;;;;;5.45;2.95;;;;;;;22.32;28.59;100734.19;5054086;28;20035;-51
2021/10/01 09:20:34;;;;;;;6.57;3.25;;;;;;;22.79;27.76;100730.78;5065335;28;20057;-46
2021/10/01 09:23:20;;;;;;;7.38;3.33;;;;;;;23.18;26.98;100741.34;5054850;28;20345;-47
2021/10/01 09:25:46;;;;;;;9.98;3.40;;;;;;;23.46;26.66;100730.34;5057439;28;20051;-48
2021/10/01 09:28:14;;;;;;;5.43;3.22;;;;;;;22.93;27.53;100738.47;5062900;28;20161;-48
2021/10/01 09:30:49;;;;;;;4.82;3.15;;;;;;;23.09;26.67;100737.47;5052387;28;20552;-48
2021/10/01 09:33:19;;;;;;;10.48;3.22;;;;;;;22.13;27.82;100743.75;5061732;28;20020;-50
2021/10/01 09:35:44;;;;;;;4.57;3.20;;;;;;;22.32;28.31;100734.19;5060887;28;20055;-48
2021/10/01 09:38:12;;;;;;;7.35;3.47;;;;;;;23.33;27.61;100729.75;5052475;28;20405;-49
2021/10/01 09:40:38;;;;;;;4.35;2.70;;;;;;;23.41;27.12;100723.00;5065529;28;20126;-50
2021/10/01 09:43:04;;;;;;;7.72;3.17;;;;;;;23.61;27.51;100723.06;5054600;28;20016;-49
2021/10/01 09:45:29;;;;;;;9.77;3.10;;;;;;;23.81;27.04;100719.63;5058159;28;20032;-48
2021/10/01 09:47:55;;;;;;;7.50;3.85;;;;;;;23.66;26.42;100727.69;5061775;28;20031;-50
2021/10/01 09:50:27;;;;;;;4.20;3.17;;;;;;;21.93;28.60;100723.47;5052947;28;20083;-47
2021/10/01 09:52:59;;;;;;;6.07;3.60;;;;;;;22.44;28.38;100731.31;5037425;28;20031;-49
2021/10/01 09:55:35;;;;;;;5.18;3.45;;;;;;;23.16;26.91;100720.97;5060175;28;20037;-48
2021/10/01 09:58:06;;;;;;;7.55;3.35;;;;;;;22.09;28.28;100716.34;5055876;28;20025;-48
2021/10/01 10:00:52;;;;;;;7.90;3.50;;;;;;;22.79;27.74;100721.78;5053034;28;20121;-46
2021/10/01 10:03:23;;;;;;;7.07;3.17;;;;;;;23.37;26.72;100711.84;5065322;28;20025;-47
2021/10/01 10:05:58;;;;;;;6.68;3.33;;;;;;;22.65;27.70;100713.31;5054255;28;20113;-47
2021/10/01 10:08:30;;;;;;;6.90;3.50;;;;;;;23.07;27.93;100708.97;5069614;28;20028;-49
2021/10/01 10:10:57;;;;;;;3.95;3.03;;;;;;;23.66;26.95;100710.59;5057457;28;20091;-47
2021/10/01 10:13:43;;;;;;;4.55;3.40;;;;;;;24.50;25.23;100706.66;5064242;28;20033;-48
2021/10/01 10:16:29;;;;;;;10.38;3.30;;;;;;;24.06;26.35;100706.34;5065929;28;20484;-49
2021/10/01 10:18:59;;;;;;;4.95;2.95;;;;;;;24.28;24.96;100695.22;5041664;28;20033;-48
2021/10/01 10:21:25;;;;;;;5.03;2.90;;;;;;;24.76;24.94;100693.84;5063469;28;20029;-50
2021/10/01 10:23:51;;;;;;;12.52;3.20;;;;;;;24.96;24.61;100698.44;5065062;28;20101;-49
2021/10/01 10:26:17;;;;;;;10.93;3.17;;;;;;;25.21;24.53;100694.00;5056578;28;20108;-49
2021/10/01 10:28:44;;;;;;;15.00;3.85;;;;;;;24.14;25.53;100687.59;5069009;28;20013;-47
2021/10/01 10:31:10;;;;;;;6.07;3.17;;;;;;;24.04;25.56;100692.22;5057388;28;20443;-49
2021/10/01 10:33:43;;;;;;;6.45;3.00;;;;;;;23.85;25.66;100691.91;5060721;28;20058;-49
2021/10/01 10:36:29;;;;;;;8.18;3.70;;;;;;;24.28;25.27;100684.34;5046133;28;20099;-50
2021/10/01 10:38:56;;;;;;;7.55;3.30;;;;;;;23.74;26.66;100678.28;5049481;28;20087;-47
2021/10/01 10:41:29;;;;;;;5.05;3.10;;;;;;;23.77;26.35;100683.16;5061283;28;20111;-51
2021/10/01 10:43:55;;;;;;;6.47;3.25;;;;;;;23.93;25.86;100677.78;5059565;28;20452;-51
2021/10/01 10:46:44;;;;;;;5.78;2.90;;;;;;;23.92;25.72;100673.44;5069202;28;20021;-48
2021/10/01 10:49:22;;;;;;;5.55;3.10;;;;;;;23.50;25.90;100675.22;5045337;28;20028;-47
2021/10/01 10:54:45;;;;;;;4.45;3.03;;;;;;;24.39;26.05;100658.78;5068970;28;20025;-49
2021/10/01 10:57:16;;;;;;;5.47;2.90;;;;;;;24.77;24.99;100656.56;5057865;28;20104;-50
2021/10/01 10:59:46;;;;;;;5.80;3.30;;;;;;;24.58;25.55;100653.63;5055428;28;20112;-48
2021/10/01 11:05:16;;;;;;;5.07;2.67;;;;;;;26.22;23.70;100647.34;5036460;28;20079;-48
2021/10/01 11:07:48;;;;;;;5.97;3.00;;;;;;;25.82;23.92;100643.03;5061588;28;20044;-49
2021/10/01 11:10:32;;;;;;;6.57;3.28;;;;;;;26.00;23.83;100642.34;5054527;28;20121;-48
2021/10/01 11:13:22;;;;;;;6.75;3.17;;;;;;;26.64;23.30;100637.69;5040487;28;20016;-50
2021/10/01 11:16:11;;;;;;;4.55;2.97;;;;;;;27.15;22.22;100633.56;5059217;28;20103;-47
2021/10/01 11:18:57;;;;;;;4.18;2.60;;;;;;;26.84;22.41;100619.44;5067871;28;20090;-47
2021/10/01 11:24:01;;;;;;;7.65;2.60;;;;;;;26.61;21.95;100629.25;5051456;28;20071;-47
2021/10/01 11:26:33;;;;;;;6.30;2.50;;;;;;;26.64;22.72;100620.50;5068209;28;20431;-48
2021/10/01 11:28:59;;;;;;;5.03;2.97;;;;;;;26.51;21.58;100620.06;5056457;28;20029;-47
2021/10/01 11:31:35;;;;;;;6.22;2.60;;;;;;;25.33;22.84;100609.25;5062954;28;20043;-47
2021/10/01 11:34:01;;;;;;;3.75;2.45;;;;;;;24.22;23.55;100612.84;5065444;28;20024;-50
2021/10/01 11:36:26;;;;;;;5.40;2.70;;;;;;;24.88;23.51;100602.91;5054808;28;20437;-49
2021/10/01 11:39:02;;;;;;;4.68;2.85;;;;;;;25.21;22.87;100612.28;5055504;28;20526;-50
2021/10/01 11:41:27;;;;;;;4.53;2.65;;;;;;;25.15;23.33;100599.78;5062357;28;20138;-50
2021/10/01 11:43:54;;;;;;;4.10;2.70;;;;;;;25.10;22.98;100605.25;5064010;28;20048;-47
2021/10/01 11:46:30;;;;;;;4.90;2.63;;;;;;;23.99;24.57;100598.69;5054714;28;20039;-47
2021/10/01 11:48:55;;;;;;;7.53;2.90;;;;;;;24.48;24.19;100599.19;5040403;28;20024;-50
2021/10/01 11:51:21;;;;;;;6.72;2.50;;;;;;;24.66;23.80;100595.09;5062755;28;20083;-49
2021/10/01 11:53:46;;;;;;;6.63;2.95;;;;;;;24.35;24.48;100595.13;5062714;28;20027;-48
2021/10/01 11:56:13;;;;;;;4.53;2.60;;;;;;;24.74;23.93;100578.19;5054280;28;20401;-48
2021/10/01 11:58:38;;;;;;;4.20;2.72;;;;;;;25.21;23.22;100582.34;5067424;28;20029;-48
2021/10/01 12:01:15;;;;;;;4.45;2.60;;;;;;;24.72;23.66;100591.25;5055342;28;20016;-50
2021/10/01 12:03:47;;;;;;;5.93;2.55;;;;;;;23.97;24.29;100584.56;5050971;28;20053;-49
2021/10/01 12:06:18;;;;;;;6.65;2.30;;;;;;;23.61;24.50;100587.25;5052056;28;20138;-48
2021/10/01 12:08:54;;;;;;;3.42;2.40;;;;;;;23.93;24.12;100585.38;5065564;28;20090;-48
2021/10/01 12:11:25;;;;;;;7.20;2.45;;;;;;;23.37;24.29;100576.06;5057228;28;20028;-47
2021/10/01 12:13:50;;;;;;;5.68;2.30;;;;;;;23.19;24.57;100571.16;5058076;28;20108;-48
2021/10/01 12:16:16;;;;;;;6.10;2.40;;;;;;;23.81;24.30;100567.44;5064588;28;20152;-48
2021/10/01 12:18:42;;;;;;;4.00;2.25;;;;;;;24.00;23.35;100566.88;5053695;28;20472;-49
2021/10/01 12:21:13;;;;;;;4.55;2.10;;;;;;;23.84;23.04;100567.97;5064047;28;20021;-49
2021/10/01 12:24:20;;;;;;;4.32;2.30;;;;;;;23.79;23.87;100566.88;5060993;28;20039;-47
2021/10/01 12:26:46;;;;;;;2.85;2.10;;;;;;;24.26;23.41;100561.44;5011561;28;20021;-48
2021/10/01 12:29:11;;;;;;;4.10;2.20;;;;;;;24.15;23.38;100561.44;5054465;28;20508;-49
2021/10/01 12:31:47;;;;;;;6.30;2.30;;;;;;;23.32;24.58;100564.38;5060705;28;20541;-49
2021/10/01 12:34:26;;;;;;;4.90;2.20;;;;;;;22.91;25.08;100556.09;5054776;28;20032;-50
2021/10/01 12:37:06;;;;;;;3.30;2.08;;;;;;;22.68;24.89;100558.16;5038235;28;20119;-48
2021/10/01 12:39:33;;;;;;;4.38;2.35;;;;;;;23.86;24.20;100552.25;5059011;28;20040;-48
2021/10/01 12:42:05;;;;;;;4.85;2.17;;;;;;;24.23;23.69;100551.09;5063559;28;20024;-48
2021/10/01 12:44:40;;;;;;;6.90;2.10;;;;;;;24.78;22.98;100547.41;5053596;28;20108;-49
2021/10/01 12:47:16;;;;;;;3.63;2.10;;;;;;;25.26;22.21;100552.34;5063863;28;20109;-50
2021/10/01 12:49:42;;;;;;;3.17;2.13;;;;;;;23.89;24.02;100543.53;5060864;28;20056;-49
2021/10/01 12:52:11;;;;;;;8.43;3.03;;;;;;;23.35;24.82;100553.78;5055388;28;20111;-50
2021/10/01 12:54:50;;;;;;;3.53;2.47;;;;;;;23.58;24.49;100547.03;5066623;28;20425;-49
2021/10/01 12:57:23;;;;;;;5.95;2.30;;;;;;;22.40;25.74;100541.19;5057391;28;20033;-50
2021/10/01 12:59:56;;;;;;;3.30;2.25;;;;;;;23.33;24.76;100541.56;5057413;28;20039;-49
2021/10/01 13:02:42;;;;;;;4.63;2.28;;;;;;;23.54;24.40;100545.13;5066596;28;20404;-51
2021/10/01 13:05:14;;;;;;;5.50;2.38;;;;;;;22.75;25.54;100545.19;5043748;28;20421;-49
2021/10/01 13:07:46;;;;;;;5.22;2.30;;;;;;;22.52;25.85;100535.56;5060559;28;20020;-50
2021/10/01 13:10:15;;;;;;;5.30;2.30;;;;;;;22.36;25.87;100534.69;5053443;28;20308;-49
2021/10/01 13:12:46;;;;;;;5.25;2.60;;;;;;;22.52;26.12;100529.31;5064968;28;20028;-49